createdAt,value
2018-12-14T00:00:11.914Z,10.50
2018-12-14T00:02:44.665Z,10.57
2018-12-14T00:05:17.536Z,10.17
2018-12-14T00:07:50.084Z,10.67
2018-12-14T00:10:22.712Z,9.53
2018-12-14T00:12:55.253Z,10.30
2018-12-14T00:15:27.912Z,9.97
2018-12-14T00:18:00.442Z,10.63
2018-12-14T00:20:33.015Z,10.07
2018-12-14T00:23:05.553Z,10.37
2018-12-14T00:25:38.204Z,10.83
2018-12-14T00:28:11.002Z,10.03
2018-12-14T00:30:43.585Z,9.80
2018-12-14T00:33:16.155Z,10.00
2018-12-14T00:35:49.067Z,10.60
2018-12-14T00:38:21.619Z,10.47
2018-12-14T00:40:54.202Z,10.47
2018-12-14T00:43:26.738Z,9.83
2018-12-14T00:45:59.447Z,8.97
2018-12-14T00:48:32.037Z,9.97
2018-12-14T00:51:04.620Z,10.47
2018-12-14T00:53:37.200Z,9.73
2018-12-14T00:56:09.777Z,11.40
2018-12-14T00:58:42.309Z,11.73
2018-12-14T01:01:14.955Z,10.50
2018-12-14T01:03:47.511Z,11.40
2018-12-14T01:06:20.071Z,10.00
2018-12-14T01:08:52.607Z,10.73
2018-12-14T01:11:25.177Z,10.50
2018-12-14T01:13:57.799Z,10.67
2018-12-14T01:16:30.375Z,11.50
2018-12-14T01:19:02.918Z,10.63
2018-12-14T01:21:35.485Z,11.17
2018-12-14T01:24:08.036Z,12.20
2018-12-14T01:26:40.970Z,11.43
2018-12-14T01:29:13.517Z,11.40
2018-12-14T01:31:46.074Z,12.23
2018-12-14T01:34:18.620Z,11.30
2018-12-14T01:36:51.275Z,12.27
2018-12-14T01:39:23.811Z,12.57
2018-12-14T01:41:56.455Z,12.10
2018-12-14T01:44:28.988Z,12.83
2018-12-14T01:47:01.551Z,12.07
2018-12-14T01:49:34.111Z,12.53
2018-12-14T01:52:06.713Z,12.03
2018-12-14T01:54:39.250Z,11.97
2018-12-14T01:57:11.887Z,12.70
2018-12-14T01:59:44.432Z,12.63
2018-12-14T02:02:16.998Z,13.40
2018-12-14T02:04:49.535Z,12.40
2018-12-14T02:07:22.271Z,13.60
2018-12-14T02:09:54.819Z,14.63
2018-12-14T02:12:27.470Z,13.23
2018-12-14T02:14:59.996Z,12.83
2018-12-14T02:17:32.553Z,14.03
2018-12-14T02:20:05.755Z,13.90
2018-12-14T02:22:38.387Z,13.70
2018-12-14T02:25:10.976Z,13.93
2018-12-14T02:27:43.580Z,15.00
2018-12-14T02:33:21.526Z,13.53
2018-12-14T02:35:54.174Z,13.83
2018-12-14T02:38:26.949Z,15.57
2018-12-14T02:40:59.648Z,13.43
2018-12-14T02:43:32.391Z,14.87
2018-12-14T02:46:05.006Z,15.10
2018-12-14T02:48:37.642Z,14.10
2018-12-14T02:51:10.253Z,13.93
2018-12-14T02:53:42.869Z,14.00
2018-12-14T02:56:15.452Z,14.00
2018-12-14T02:58:48.144Z,13.77
2018-12-14T03:01:20.722Z,13.93
2018-12-14T03:03:53.342Z,12.20
2018-12-14T03:06:26.021Z,13.23
2018-12-14T03:08:58.734Z,13.53
2018-12-14T03:11:31.327Z,12.10
2018-12-14T03:14:03.996Z,11.90
2018-12-14T03:16:36.586Z,13.47
2018-12-14T03:19:09.222Z,11.87
2018-12-14T03:21:41.836Z,12.97
2018-12-14T03:24:14.478Z,13.37
2018-12-14T03:26:47.062Z,12.33
2018-12-14T03:29:19.730Z,13.37
2018-12-14T03:31:52.319Z,13.00
2018-12-14T03:34:25.148Z,15.10
2018-12-14T03:36:57.763Z,11.90
2018-12-14T03:39:30.468Z,12.40
2018-12-14T03:42:03.066Z,12.80
2018-12-14T03:44:35.807Z,13.07
2018-12-14T03:47:08.503Z,13.80
2018-12-14T03:49:41.423Z,12.33
2018-12-14T03:52:14.015Z,13.50
2018-12-14T03:54:46.649Z,13.03
2018-12-14T03:57:19.251Z,13.40
2018-12-14T03:59:51.990Z,14.77
2018-12-14T04:02:24.595Z,12.37
2018-12-14T04:04:57.290Z,12.30
2018-12-14T04:07:29.884Z,12.30
2018-12-14T04:10:02.503Z,12.17
2018-12-14T04:12:41.357Z,12.20
2018-12-14T04:15:09.804Z,13.40
2018-12-14T04:17:42.398Z,14.50
2018-12-14T04:20:15.195Z,13.20
2018-12-14T04:22:47.787Z,12.40
2018-12-14T04:25:20.534Z,13.40
2018-12-14T04:27:53.131Z,13.47
2018-12-14T04:30:25.838Z,15.03
2018-12-14T04:32:58.447Z,11.90
2018-12-14T04:35:31.688Z,13.10
2018-12-14T04:38:04.374Z,12.13
2018-12-14T04:40:36.999Z,13.07
2018-12-14T04:43:09.602Z,13.33
2018-12-14T04:45:42.339Z,12.50
2018-12-14T04:48:14.935Z,12.97
2018-12-14T04:50:47.570Z,12.43
2018-12-14T04:53:20.170Z,11.97
2018-12-14T04:55:52.794Z,13.23
2018-12-14T04:58:25.387Z,11.80
2018-12-14T05:00:58.001Z,12.17
2018-12-14T05:03:30.588Z,12.13
2018-12-14T05:06:03.213Z,12.93
2018-12-14T05:08:35.809Z,11.73
2018-12-14T05:11:08.539Z,11.80
2018-12-14T05:13:41.140Z,14.30
2018-12-14T05:16:13.789Z,12.80
2018-12-14T05:18:46.366Z,11.03
2018-12-14T05:21:19.037Z,12.93
2018-12-14T05:23:51.918Z,12.70
2018-12-14T05:26:24.605Z,11.97
2018-12-14T05:28:57.247Z,12.67
2018-12-14T05:31:29.897Z,13.07
2018-12-14T05:34:02.531Z,12.93
2018-12-14T05:36:35.242Z,12.33
2018-12-14T05:39:07.825Z,11.90
2018-12-14T05:41:40.474Z,12.13
2018-12-14T05:44:13.082Z,13.33
2018-12-14T05:46:45.715Z,13.33
2018-12-14T05:49:18.450Z,10.97
2018-12-14T05:51:51.329Z,10.67
2018-12-14T05:54:23.914Z,13.27
2018-12-14T05:56:56.906Z,12.70
2018-12-14T05:59:29.500Z,12.63
2018-12-14T06:02:02.098Z,12.63
2018-12-14T06:04:34.695Z,13.10
2018-12-14T06:07:07.319Z,14.33
2018-12-14T06:09:39.896Z,14.43
2018-12-14T06:12:12.976Z,12.60
2018-12-14T06:14:45.601Z,13.73
2018-12-14T06:17:18.327Z,13.23
2018-12-14T06:19:50.939Z,13.53
2018-12-14T06:22:23.595Z,14.30
2018-12-14T06:24:56.208Z,13.03
2018-12-14T06:27:28.911Z,12.83
2018-12-14T06:30:01.496Z,12.77
2018-12-14T06:32:34.121Z,14.00
2018-12-14T06:35:06.764Z,13.27
2018-12-14T06:37:39.395Z,12.10
2018-12-14T06:40:11.977Z,12.00
2018-12-14T06:42:45.653Z,13.27
2018-12-14T06:45:19.791Z,13.30
2018-12-14T06:47:52.454Z,12.13
2018-12-14T06:50:26.851Z,13.17
2018-12-14T06:53:00.648Z,14.27
2018-12-14T06:55:33.305Z,12.93
2018-12-14T06:58:06.046Z,12.33
2018-12-14T07:00:38.628Z,12.30
2018-12-14T07:03:11.359Z,11.67
2018-12-14T07:05:43.949Z,11.63
2018-12-14T07:08:16.646Z,11.83
2018-12-14T07:10:49.236Z,11.77
2018-12-14T07:13:22.129Z,11.30
2018-12-14T07:15:54.914Z,12.23
2018-12-14T07:18:27.551Z,12.97
2018-12-14T07:21:00.164Z,13.13
2018-12-14T07:23:32.797Z,12.30
2018-12-14T07:26:05.387Z,13.37
2018-12-14T07:28:38.028Z,12.83
2018-12-14T07:31:10.639Z,12.73
2018-12-14T07:33:43.306Z,11.80
2018-12-14T07:36:15.897Z,11.20
2018-12-14T07:38:48.533Z,11.60
2018-12-14T07:41:21.500Z,12.07
2018-12-14T07:43:54.482Z,10.97
2018-12-14T07:46:27.082Z,11.57
2018-12-14T07:48:59.933Z,11.93
2018-12-14T07:51:32.549Z,11.70
2018-12-14T07:54:05.281Z,10.80
2018-12-14T07:56:37.961Z,11.30
2018-12-14T07:59:11.370Z,12.63
2018-12-14T08:01:44.061Z,12.43
2018-12-14T08:04:16.854Z,10.93
2018-12-14T08:06:49.495Z,11.90
2018-12-14T08:09:22.588Z,12.47
2018-12-14T08:11:55.201Z,12.60
2018-12-14T08:14:27.903Z,13.53
2018-12-14T08:17:00.484Z,14.43
2018-12-14T08:19:33.118Z,12.40
2018-12-14T08:22:06.478Z,13.07
2018-12-14T08:24:39.103Z,14.33
2018-12-14T08:27:11.713Z,15.90
2018-12-14T08:29:44.651Z,14.23
2018-12-14T08:32:17.836Z,14.73
2018-12-14T08:34:51.115Z,16.37
2018-12-14T08:37:24.115Z,15.77
2018-12-14T08:39:56.724Z,15.70
2018-12-14T08:42:29.321Z,14.97
2018-12-14T08:45:01.972Z,16.57
2018-12-14T08:47:34.726Z,16.60
2018-12-14T08:50:07.526Z,15.10
2018-12-14T08:52:40.113Z,16.20
2018-12-14T08:55:12.849Z,15.30
2018-12-14T08:57:45.446Z,15.43
2018-12-14T09:00:18.077Z,15.30
2018-12-14T09:02:50.647Z,14.63
2018-12-14T09:05:23.273Z,15.00
2018-12-14T09:07:55.890Z,14.57
2018-12-14T09:10:28.519Z,14.90
2018-12-14T09:13:01.160Z,13.70
2018-12-14T09:15:33.767Z,14.20
2018-12-14T09:18:06.359Z,36.50
2018-12-14T09:20:39.550Z,13.10
2018-12-14T09:23:12.174Z,13.63
2018-12-14T09:25:44.812Z,13.87
2018-12-14T09:28:17.462Z,14.67
2018-12-14T09:30:50.193Z,14.20
2018-12-14T09:33:22.770Z,15.33
2018-12-14T09:35:55.395Z,13.63
2018-12-14T09:38:28.041Z,15.80
2018-12-14T09:41:00.698Z,15.60
2018-12-14T09:43:33.280Z,16.20
2018-12-14T09:46:05.957Z,16.20
2018-12-14T09:48:38.534Z,16.23
2018-12-14T09:51:12.493Z,16.93
2018-12-14T09:53:45.376Z,16.87
2018-12-14T09:56:18.022Z,15.73
2018-12-14T09:58:50.622Z,17.13
2018-12-14T10:01:23.265Z,16.90
2018-12-14T10:03:56.021Z,16.73
2018-12-14T10:06:28.647Z,16.93
2018-12-14T10:09:01.251Z,16.20
2018-12-14T10:11:33.889Z,16.77
2018-12-14T10:14:06.618Z,17.70
2018-12-14T10:16:39.298Z,16.73
2018-12-14T10:19:12.030Z,17.13
2018-12-14T10:21:44.657Z,16.93
2018-12-14T10:24:17.251Z,16.17
2018-12-14T10:26:49.885Z,17.53
2018-12-14T10:29:22.529Z,17.10
2018-12-14T10:31:55.245Z,17.67
2018-12-14T10:34:27.840Z,15.97
2018-12-14T10:37:00.553Z,16.43
2018-12-14T10:39:33.182Z,16.87
2018-12-14T10:42:05.823Z,16.40
2018-12-14T10:44:38.418Z,17.40
2018-12-14T10:47:11.073Z,18.47
2018-12-14T10:49:43.660Z,18.13
2018-12-14T10:52:16.384Z,17.30
2018-12-14T10:54:49.011Z,18.20
2018-12-14T10:57:21.771Z,18.83
2018-12-14T10:59:54.363Z,18.77
2018-12-14T11:02:27.094Z,18.90
2018-12-14T11:04:59.743Z,17.17
2018-12-14T11:07:32.353Z,18.20
2018-12-14T11:10:07.090Z,18.00
2018-12-14T11:12:39.734Z,17.37
2018-12-14T11:15:12.335Z,16.93
2018-12-14T11:17:45.033Z,18.77
2018-12-14T11:20:17.623Z,17.23
2018-12-14T11:22:50.264Z,16.50
2018-12-14T11:25:22.853Z,16.80
2018-12-14T11:27:55.688Z,17.13
2018-12-14T11:30:28.278Z,17.47
2018-12-14T11:33:00.893Z,16.87
2018-12-14T11:35:33.498Z,16.83
2018-12-14T11:38:06.159Z,16.30
2018-12-14T11:40:38.836Z,16.47
2018-12-14T11:43:11.528Z,15.57
2018-12-14T11:45:44.126Z,17.73
2018-12-14T11:48:16.840Z,16.90
2018-12-14T11:50:49.427Z,17.63
2018-12-14T11:53:22.209Z,16.53
2018-12-14T11:55:54.787Z,17.43
2018-12-14T11:58:27.405Z,17.20
2018-12-14T12:01:00.055Z,16.63
2018-12-14T12:03:32.672Z,16.83
2018-12-14T12:06:05.678Z,17.80
2018-12-14T12:08:38.384Z,17.77
2018-12-14T12:11:10.986Z,16.03
2018-12-14T12:13:43.640Z,16.70
2018-12-14T12:16:16.212Z,16.20
2018-12-14T12:18:48.890Z,17.97
2018-12-14T12:21:21.525Z,16.50
2018-12-14T12:23:55.429Z,16.43
2018-12-14T12:26:28.418Z,16.77
2018-12-14T12:29:01.141Z,17.30
2018-12-14T12:31:33.731Z,17.30
2018-12-14T12:34:06.474Z,18.23
2018-12-14T12:36:39.067Z,18.13
2018-12-14T12:39:11.805Z,17.73
2018-12-14T12:41:44.393Z,17.63
2018-12-14T12:44:17.012Z,18.90
2018-12-14T12:46:49.606Z,18.73
2018-12-14T12:49:22.321Z,18.70
2018-12-14T12:51:54.930Z,20.03
2018-12-14T12:54:27.621Z,20.00
2018-12-14T12:57:00.209Z,19.77
2018-12-14T12:59:33.378Z,20.93
2018-12-14T13:02:06.095Z,21.07
2018-12-14T13:04:39.376Z,21.90
2018-12-14T13:07:11.983Z,22.00
2018-12-14T13:09:44.732Z,22.63
2018-12-14T13:12:17.343Z,22.07
2018-12-14T13:14:50.092Z,22.60
2018-12-14T13:17:22.671Z,24.20
2018-12-14T13:19:55.332Z,23.90
2018-12-14T13:22:27.917Z,24.13
2018-12-14T13:25:00.615Z,26.73
2018-12-14T13:27:33.360Z,27.50
2018-12-14T13:30:06.110Z,26.93
2018-12-14T13:32:38.725Z,26.50
2018-12-14T13:35:11.411Z,25.87
2018-12-14T13:37:44.042Z,26.23
2018-12-14T13:40:16.883Z,26.93
2018-12-14T13:42:49.538Z,25.53
2018-12-14T13:45:22.518Z,26.87
2018-12-14T13:47:55.133Z,24.37
2018-12-14T13:50:27.744Z,24.03
2018-12-14T13:53:00.325Z,22.93
2018-12-14T13:55:33.031Z,23.90
2018-12-14T13:58:05.625Z,24.73
2018-12-14T14:00:38.341Z,24.10
2018-12-14T14:03:10.930Z,24.37
2018-12-14T14:05:43.561Z,22.90
2018-12-14T14:08:16.167Z,23.67
2018-12-14T14:10:48.825Z,22.73
2018-12-14T14:13:21.404Z,23.27
2018-12-14T14:15:54.083Z,23.80
2018-12-14T14:18:26.701Z,23.93
2018-12-14T14:20:59.327Z,23.80
2018-12-14T14:23:31.941Z,24.40
2018-12-14T14:26:04.661Z,23.53
2018-12-14T14:28:37.252Z,22.50
2018-12-14T14:31:09.892Z,22.27
2018-12-14T14:33:42.507Z,20.57
2018-12-14T14:36:15.206Z,20.13
2018-12-14T14:38:47.795Z,19.37
2018-12-14T14:41:20.609Z,19.70
2018-12-14T14:43:53.204Z,20.33
2018-12-14T14:46:25.917Z,20.27
2018-12-14T14:48:58.532Z,20.17
2018-12-14T14:51:31.201Z,19.83
2018-12-14T14:54:03.834Z,19.33
2018-12-14T14:56:36.556Z,20.70
2018-12-14T14:59:09.150Z,19.83
2018-12-14T15:01:41.843Z,20.57
2018-12-14T15:04:15.838Z,20.70
2018-12-14T15:06:48.614Z,20.90
2018-12-14T15:09:21.222Z,21.00
2018-12-14T15:11:53.839Z,20.40
2018-12-14T15:14:26.431Z,21.83
2018-12-14T15:16:59.109Z,20.53
2018-12-14T15:19:31.709Z,21.37
2018-12-14T15:22:04.802Z,21.53
2018-12-14T15:24:37.637Z,21.13
2018-12-14T15:27:10.268Z,20.47
2018-12-14T15:29:42.885Z,21.37
2018-12-14T15:32:16.075Z,21.70
2018-12-14T15:34:48.680Z,22.33
2018-12-14T15:37:21.421Z,24.00
2018-12-14T15:39:54.018Z,23.53
2018-12-14T15:42:26.715Z,23.53
2018-12-14T15:44:59.329Z,22.30
2018-12-14T15:47:31.952Z,23.10
2018-12-14T15:50:04.895Z,22.67
2018-12-14T15:52:37.929Z,23.60
2018-12-14T15:55:10.548Z,23.97
2018-12-14T15:57:43.171Z,22.27
2018-12-14T16:00:15.899Z,22.33
2018-12-14T16:02:48.990Z,23.77
2018-12-14T16:05:21.599Z,23.10
2018-12-14T16:07:54.315Z,22.50
2018-12-14T16:10:27.041Z,22.83
2018-12-14T16:12:59.659Z,23.67
2018-12-14T16:15:32.257Z,23.10
2018-12-14T16:18:04.912Z,24.20
2018-12-14T16:20:37.576Z,23.93
2018-12-14T16:23:10.536Z,24.77
2018-12-14T16:25:43.121Z,41.13
2018-12-14T16:28:15.787Z,24.80
2018-12-14T16:30:48.388Z,27.13
2018-12-14T16:33:21.083Z,29.13
2018-12-14T16:35:53.682Z,43.13
2018-12-14T16:38:26.384Z,53.90
2018-12-14T16:40:58.981Z,72.67
2018-12-14T16:43:31.686Z,29.97
2018-12-14T16:46:04.283Z,26.57
2018-12-14T16:48:36.932Z,26.57
2018-12-14T16:51:09.525Z,26.33
2018-12-14T16:53:48.093Z,26.30
2018-12-14T16:56:20.689Z,26.07
2018-12-14T16:58:53.318Z,26.03
2018-12-14T17:01:25.918Z,25.70
2018-12-14T17:03:58.582Z,27.17
2018-12-14T17:06:31.286Z,27.33
2018-12-14T17:09:05.104Z,26.70
2018-12-14T17:11:37.692Z,28.57
2018-12-14T17:14:10.313Z,27.80
2018-12-14T17:16:42.967Z,28.80
2018-12-14T17:19:15.576Z,28.80
2018-12-14T17:21:48.200Z,28.60
2018-12-14T17:24:21.110Z,30.10
2018-12-14T17:26:53.695Z,28.53
2018-12-14T17:29:26.348Z,28.50
2018-12-14T17:31:58.939Z,28.90
2018-12-14T17:34:31.627Z,28.93
2018-12-14T17:37:04.207Z,29.33
2018-12-14T17:39:36.854Z,28.80
2018-12-14T17:42:09.430Z,30.20
2018-12-14T17:44:42.327Z,30.30
2018-12-14T17:47:14.983Z,28.73
2018-12-14T17:49:47.625Z,30.07
2018-12-14T17:52:20.289Z,30.13
2018-12-14T17:54:53.354Z,30.63
2018-12-14T17:57:43.547Z,32.37
2018-12-14T18:00:19.203Z,30.87
2018-12-14T18:02:51.816Z,29.93
2018-12-14T18:05:24.542Z,29.80
2018-12-14T18:07:57.112Z,29.50
2018-12-14T18:10:29.769Z,29.77
2018-12-14T18:13:02.379Z,30.60
2018-12-14T18:15:35.012Z,30.80
2018-12-14T18:18:07.629Z,32.73
2018-12-14T18:20:40.323Z,29.70
2018-12-14T18:23:12.901Z,30.37
2018-12-14T18:25:45.646Z,31.50
2018-12-14T18:28:18.241Z,30.47
2018-12-14T18:30:50.973Z,30.80
2018-12-14T18:33:23.553Z,31.17
2018-12-14T18:35:56.299Z,29.97
2018-12-14T18:38:28.911Z,28.77
2018-12-14T18:41:01.609Z,31.63
2018-12-14T18:43:34.278Z,31.27
2018-12-14T18:46:06.901Z,30.53
2018-12-14T18:48:39.500Z,29.30
2018-12-14T18:51:12.201Z,30.70
2018-12-14T18:53:46.877Z,31.30
2018-12-14T18:56:19.531Z,29.60
2018-12-14T18:58:52.158Z,30.43
2018-12-14T19:01:24.891Z,28.57
2018-12-14T19:03:57.472Z,30.13
2018-12-14T19:06:30.113Z,30.07
2018-12-14T19:09:02.973Z,32.27
2018-12-14T19:11:35.622Z,30.90
2018-12-14T19:14:08.209Z,29.43
2018-12-14T19:16:40.867Z,30.63
2018-12-14T19:19:13.507Z,32.60
2018-12-14T19:21:46.252Z,29.37
2018-12-14T19:24:18.848Z,29.47
2018-12-14T19:26:51.556Z,28.47
2018-12-14T19:29:24.127Z,32.90
2018-12-14T19:31:56.763Z,34.13
2018-12-14T19:34:31.591Z,31.83
2018-12-14T19:37:04.093Z,30.87
2018-12-14T19:39:36.690Z,27.67
2018-12-14T19:42:09.702Z,30.10
2018-12-14T19:44:42.326Z,28.47
2018-12-14T19:47:15.191Z,27.63
2018-12-14T19:49:47.803Z,27.80
2018-12-14T19:52:20.465Z,28.40
2018-12-14T19:54:53.106Z,27.30
2018-12-14T19:57:25.748Z,27.70
2018-12-14T19:59:58.348Z,27.47
2018-12-14T20:02:31.113Z,26.20
2018-12-14T20:05:03.991Z,27.80
2018-12-14T20:07:36.709Z,27.27
2018-12-14T20:10:09.357Z,26.67
2018-12-14T20:12:42.040Z,25.93
2018-12-14T20:15:14.683Z,25.03
2018-12-14T20:17:47.325Z,25.87
2018-12-14T20:20:19.946Z,26.57
2018-12-14T20:22:52.643Z,25.93
2018-12-14T20:25:25.269Z,24.87
2018-12-14T20:27:57.937Z,24.37
2018-12-14T20:30:30.526Z,23.90
2018-12-14T20:33:03.411Z,24.07
2018-12-14T20:35:36.011Z,23.33
2018-12-14T20:38:08.886Z,25.63
2018-12-14T20:40:41.467Z,24.80
2018-12-14T20:43:14.261Z,25.17
2018-12-14T20:45:46.849Z,24.20
2018-12-14T20:48:19.551Z,23.90
2018-12-14T20:50:52.138Z,23.60
2018-12-14T20:53:24.760Z,23.60
2018-12-14T20:55:57.347Z,22.93
2018-12-14T20:58:29.972Z,23.13
2018-12-14T21:01:02.589Z,23.83
2018-12-14T21:03:35.206Z,23.50
2018-12-14T21:06:07.815Z,23.50
2018-12-14T21:08:40.533Z,23.00
2018-12-14T21:11:13.125Z,22.63
2018-12-14T21:13:45.823Z,21.80
2018-12-14T21:16:18.420Z,22.83
2018-12-14T21:18:51.151Z,22.40
2018-12-14T21:21:23.737Z,21.83
2018-12-14T21:23:56.352Z,21.47
2018-12-14T21:26:28.943Z,22.80
2018-12-14T21:29:01.587Z,21.23
2018-12-14T21:31:34.183Z,22.17
2018-12-14T21:34:06.901Z,21.53
2018-12-14T21:36:39.491Z,21.27
2018-12-14T21:39:12.124Z,19.77
2018-12-14T21:41:44.725Z,20.90
2018-12-14T21:44:17.545Z,19.27
2018-12-14T21:46:50.132Z,19.47
2018-12-14T21:49:22.793Z,19.97
2018-12-14T21:51:55.404Z,20.67
2018-12-14T21:54:28.006Z,18.73
2018-12-14T21:57:00.587Z,18.97
2018-12-14T21:59:33.282Z,21.53
2018-12-14T22:02:05.877Z,22.47
2018-12-14T22:04:38.495Z,18.43
2018-12-14T22:07:11.081Z,24.83
2018-12-14T22:09:43.699Z,19.50
2018-12-14T22:12:16.292Z,22.63
2018-12-14T22:14:49.009Z,19.77
2018-12-14T22:17:21.590Z,21.37
2018-12-14T22:19:54.216Z,18.63
2018-12-14T22:22:26.924Z,18.10
2018-12-14T22:24:59.642Z,18.30
2018-12-14T22:27:32.331Z,19.90
2018-12-14T22:30:05.224Z,20.60
2018-12-14T22:32:37.815Z,39.07
2018-12-14T22:35:10.455Z,36.73
2018-12-14T22:37:43.025Z,28.70
2018-12-14T22:40:15.997Z,28.40
2018-12-14T22:42:48.599Z,39.53
2018-12-14T22:45:21.239Z,51.53
2018-12-14T22:47:53.847Z,62.63
2018-12-14T22:50:26.491Z,32.43
2018-12-14T22:52:59.092Z,25.30
2018-12-14T22:55:31.712Z,18.27
2018-12-14T22:58:04.366Z,17.10
2018-12-14T23:00:39.155Z,18.57
2018-12-14T23:03:12.069Z,22.90
2018-12-14T23:05:44.781Z,32.43
2018-12-14T23:08:17.375Z,42.10
2018-12-14T23:10:50.337Z,28.50
2018-12-14T23:13:23.334Z,17.07
2018-12-14T23:15:56.070Z,18.93
2018-12-14T23:18:28.658Z,16.70
2018-12-14T23:21:01.289Z,16.17
2018-12-14T23:23:33.871Z,17.13
2018-12-14T23:26:06.583Z,16.53
2018-12-14T23:28:39.167Z,16.53
2018-12-14T23:31:11.775Z,17.27
2018-12-14T23:33:44.347Z,16.77
2018-12-14T23:36:17.154Z,15.50
2018-12-14T23:38:49.777Z,16.23
2018-12-14T23:41:22.487Z,16.37
2018-12-14T23:43:55.095Z,14.70
2018-12-14T23:46:27.808Z,14.93
2018-12-14T23:49:00.426Z,15.90
2018-12-14T23:51:33.109Z,15.20
2018-12-14T23:54:05.706Z,14.77
2018-12-14T23:56:38.572Z,15.07
2018-12-14T23:59:11.147Z,15.23
